Time;durP1;ratioP1;P1;durP2;ratioP2;P2;SDS_P1;SDS_P2;PMS_P1;PMS_P2;Temp;Humidity;BMP_temperature;BMP_pressure;BME280_temperature;BME280_humidity;BME280_pressure;Samples;Min_cycle;Max_cycle;Signal;HPM_P1;HPM_P2
2023/03/13 00:00:20;;;;;;;6.13;2.20;;;11.70;79.10;;;;;;4918069;29;20381;-83
2023/03/13 00:02:46;;;;;;;4.97;2.17;;;11.70;79.00;;;;;;4917858;29;20036;-83
2023/03/13 00:05:13;;;;;;;4.05;2.28;;;11.70;79.00;;;;;;4917062;29;20027;-83
2023/03/13 00:07:39;;;;;;;3.03;1.83;;;11.70;79.00;;;;;;4901692;29;20123;-82
2023/03/13 00:10:05;;;;;;;4.72;2.10;;;11.70;79.00;;;;;;4919023;29;20387;-83
2023/03/13 00:12:31;;;;;;;5.50;2.17;;;11.70;79.10;;;;;;4916874;29;20047;-84
2023/03/13 00:14:57;;;;;;;4.80;2.22;;;11.70;79.00;;;;;;4917553;29;20382;-83
2023/03/13 00:17:23;;;;;;;3.00;1.90;;;11.70;79.00;;;;;;4917091;29;20055;-84
2023/03/13 00:19:50;;;;;;;4.55;2.38;;;11.70;79.10;;;;;;4886351;29;20366;-83
2023/03/13 00:22:16;;;;;;;5.25;2.20;;;11.70;79.00;;;;;;4902394;29;20078;-83
2023/03/13 00:24:41;;;;;;;4.70;2.10;;;11.70;79.00;;;;;;4933494;29;20024;-84
2023/03/13 00:27:07;;;;;;;5.03;2.22;;;11.70;79.00;;;;;;4902916;29;20099;-83
2023/03/13 00:29:34;;;;;;;5.25;2.00;;;11.70;79.00;;;;;;4926736;29;20060;-82
2023/03/13 00:32:00;;;;;;;4.07;1.90;;;11.70;79.00;;;;;;4933995;29;20028;-85
2023/03/13 00:34:26;;;;;;;5.35;1.95;;;11.70;79.00;;;;;;4935828;29;20372;-82
2023/03/13 00:36:54;;;;;;;3.95;2.00;;;11.70;79.10;;;;;;4919468;29;20047;-82
2023/03/13 00:39:20;;;;;;;3.88;2.33;;;11.80;79.10;;;;;;4910539;29;20032;-84
2023/03/13 00:41:46;;;;;;;3.95;1.88;;;11.70;79.10;;;;;;4906991;29;20035;-84
2023/03/13 00:44:13;;;;;;;4.72;2.08;;;11.70;79.10;;;;;;4888589;29;20067;-83
2023/03/13 00:46:39;;;;;;;4.72;1.85;;;11.70;79.10;;;;;;4887068;29;20036;-84
2023/03/13 00:49:05;;;;;;;3.15;1.70;;;11.70;79.10;;;;;;4917987;29;20052;-83
2023/03/13 00:51:33;;;;;;;2.72;1.58;;;11.70;79.10;;;;;;4901738;29;20040;-81
2023/03/13 00:53:59;;;;;;;4.68;1.75;;;11.70;79.10;;;;;;4901245;29;20047;-82
2023/03/13 00:56:26;;;;;;;3.55;1.98;;;11.70;79.10;;;;;;4917733;29;20039;-82
2023/03/13 00:58:52;;;;;;;4.00;2.00;;;11.70;79.10;;;;;;4916660;29;20102;-83
2023/03/13 01:01:27;;;;;;;4.72;1.90;;;11.80;79.10;;;;;;4900951;29;20123;-82
2023/03/13 01:03:54;;;;;;;;;;;11.70;79.10;;;;;;4902103;29;20036;-84
2023/03/13 01:06:26;;;;;;;3.08;1.55;;;11.70;79.10;;;;;;4916602;29;19907;-83
2023/03/13 01:08:55;;;;;;;3.40;1.70;;;11.70;79.10;;;;;;4900975;29;20040;-83
2023/03/13 01:11:23;;;;;;;4.47;2.15;;;11.70;79.10;;;;;;4916720;29;20039;-83
2023/03/13 01:13:54;;;;;;;2.95;1.70;;;11.70;79.20;;;;;;4900683;29;20465;-82
2023/03/13 01:16:21;;;;;;;4.32;1.80;;;11.70;79.20;;;;;;4885504;29;20032;-82
2023/03/13 01:18:50;;;;;;;4.30;1.80;;;11.70;79.20;;;;;;4885407;29;20020;-83
2023/03/13 01:21:18;;;;;;;4.28;1.85;;;11.70;79.30;;;;;;4900810;29;20035;-83
2023/03/13 01:23:45;;;;;;;3.00;1.63;;;11.70;79.30;;;;;;4900497;29;20092;-83
2023/03/13 01:26:11;;;;;;;4.07;1.88;;;11.70;79.30;;;;;;4917269;29;20028;-83
2023/03/13 01:28:38;;;;;;;2.97;1.80;;;11.70;79.30;;;;;;4916092;29;20462;-84
2023/03/13 01:31:17;;;;;;;4.10;1.70;;;11.70;79.30;;;;;;4900503;29;20036;-82
2023/03/13 01:33:44;;;;;;;4.07;2.05;;;11.70;79.40;;;;;;4932364;29;20383;-83
2023/03/13 01:36:11;;;;;;;3.30;1.90;;;11.60;79.30;;;;;;4885063;29;20032;-86
2023/03/13 01:38:38;;;;;;;3.40;2.03;;;11.70;79.40;;;;;;4915997;29;20506;-84
2023/03/13 01:41:06;;;;;;;3.75;2.10;;;11.70;79.40;;;;;;4884928;29;20032;-83
2023/03/13 01:43:34;;;;;;;3.42;1.80;;;11.70;79.40;;;;;;4900340;29;20032;-83
2023/03/13 01:46:23;;;;;;;3.85;2.17;;;11.70;79.40;;;;;;4916049;29;20465;-84
2023/03/13 01:49:16;;;;;;;4.40;1.88;;;11.70;79.40;;;;;;4907109;29;20147;-83
2023/03/13 01:52:16;;;;;;;3.30;1.80;;;11.70;79.40;;;;;;4917629;29;20385;-84
2023/03/13 01:54:54;;;;;;;4.53;1.80;;;11.60;79.40;;;;;;4904487;29;20096;-84
2023/03/13 01:57:28;;;;;;;3.22;1.80;;;11.70;79.40;;;;;;4936154;29;20445;-88
2023/03/13 01:59:58;;;;;;;4.57;1.92;;;11.70;79.50;;;;;;4921088;29;20032;-88
2023/03/13 02:02:25;;;;;;;2.17;1.33;;;11.70;79.40;;;;;;4937224;29;20131;-89
2023/03/13 02:04:56;;;;;;;4.43;1.90;;;11.70;79.40;;;;;;4922866;29;20040;-88
2023/03/13 02:07:28;;;;;;;3.78;1.90;;;11.70;79.40;;;;;;4905927;29;20063;-89
2023/03/13 02:09:55;;;;;;;4.07;1.60;;;11.70;79.40;;;;;;4921581;29;20032;-88
2023/03/13 02:12:33;;;;;;;4.38;1.80;;;11.70;79.40;;;;;;4909785;29;20172;-89
2023/03/13 02:15:04;;;;;;;2.47;1.65;;;11.70;79.50;;;;;;4941717;29;20047;-89
2023/03/13 02:17:33;;;;;;;2.92;1.85;;;11.70;79.40;;;;;;4925920;29;20068;-88
2023/03/13 02:20:00;;;;;;;4.20;1.90;;;11.70;79.50;;;;;;4910154;29;20059;-89
2023/03/13 02:22:31;;;;;;;2.42;1.48;;;11.70;79.50;;;;;;4893604;29;20039;-88
2023/03/13 02:25:23;;;;;;;4.35;1.95;;;11.70;79.40;;;;;;4940597;29;20093;-89
2023/03/13 02:28:00;;;;;;;4.32;1.80;;;11.70;79.50;;;;;;4920908;29;20036;-89
2023/03/13 02:30:28;;;;;;;3.50;1.80;;;11.70;79.40;;;;;;4920803;29;20036;-88
2023/03/13 02:32:55;;;;;;;2.58;1.60;;;11.70;79.40;;;;;;4920082;29;20492;-89
2023/03/13 02:35:22;;;;;;;2.33;1.50;;;11.70;79.40;;;;;;4904347;29;20062;-89
2023/03/13 02:37:58;;;;;;;2.88;1.40;;;11.70;79.40;;;;;;4919849;29;20143;-89
2023/03/13 02:40:28;;;;;;;2.88;1.48;;;11.80;79.50;;;;;;4920026;29;20039;-88
2023/03/13 02:42:57;;;;;;;2.47;1.45;;;11.70;79.40;;;;;;4903993;29;20032;-89
2023/03/13 02:45:23;;;;;;;3.22;1.80;;;11.70;79.40;;;;;;4888406;29;20104;-88
2023/03/13 02:47:49;;;;;;;2.60;1.55;;;11.80;79.40;;;;;;4903896;29;20484;-89
2023/03/13 02:50:15;;;;;;;3.28;1.70;;;11.80;79.40;;;;;;4903870;29;20388;-90
2023/03/13 02:52:48;;;;;;;2.67;1.65;;;11.80;79.40;;;;;;4903909;29;20128;-89
2023/03/13 02:55:28;;;;;;;3.25;2.15;;;11.80;79.40;;;;;;4904264;29;20028;-89
2023/03/13 02:57:54;;;;;;;2.35;1.65;;;11.80;79.40;;;;;;4919720;29;20028;-89
2023/03/13 03:00:25;;;;;;;4.65;2.00;;;11.80;79.30;;;;;;4903424;29;20032;-89
2023/03/13 03:02:53;;;;;;;4.00;1.65;;;11.80;79.30;;;;;;4919904;29;20450;-88
2023/03/13 03:05:20;;;;;;;2.88;1.70;;;11.80;79.30;;;;;;4919233;29;20123;-89
2023/03/13 03:07:48;;;;;;;2.20;1.60;;;11.80;79.30;;;;;;4888456;29;20386;-89
2023/03/13 03:10:15;;;;;;;1.80;1.50;;;11.80;79.30;;;;;;4888278;29;20183;-88
2023/03/13 03:12:41;;;;;;;2.53;1.58;;;11.90;79.40;;;;;;4903594;29;20024;-89
2023/03/13 03:15:08;;;;;;;2.67;1.80;;;11.90;79.40;;;;;;4919113;29;20135;-90
2023/03/13 03:17:35;;;;;;;2.25;1.58;;;11.90;79.40;;;;;;4903450;29;20126;-89
2023/03/13 03:20:02;;;;;;;3.33;1.80;;;11.90;79.40;;;;;;4903605;29;20084;-89
2023/03/13 03:22:29;;;;;;;3.05;1.80;;;11.90;79.40;;;;;;4903326;29;20555;-89
2023/03/13 03:24:55;;;;;;;2.55;1.60;;;11.90;79.40;;;;;;4903517;29;20024;-89
2023/03/13 03:27:22;;;;;;;2.85;1.70;;;11.90;79.40;;;;;;4934810;29;20040;-88
2023/03/13 03:29:52;;;;;;;2.60;1.60;;;11.90;79.40;;;;;;4918887;29;20028;-90
2023/03/13 03:32:20;;;;;;;2.00;1.67;;;11.90;79.40;;;;;;4918613;29;20119;-90
2023/03/13 03:34:45;;;;;;;2.78;1.73;;;11.90;79.40;;;;;;4903827;29;20063;-90
2023/03/13 03:37:12;;;;;;;2.70;1.67;;;11.90;79.40;;;;;;4903091;29;20083;-89
2023/03/13 03:39:38;;;;;;;2.42;1.85;;;12.00;79.40;;;;;;4934190;29;20080;-90
2023/03/13 03:42:05;;;;;;;1.80;1.65;;;12.00;79.40;;;;;;4919301;29;20029;-90
2023/03/13 03:44:31;;;;;;;3.03;1.85;;;12.00;79.40;;;;;;4902987;29;20031;-90
2023/03/13 03:46:59;;;;;;;3.25;1.83;;;12.00;79.40;;;;;;4902901;29;20099;-91
2023/03/13 03:49:27;;;;;;;2.53;1.80;;;12.00;79.40;;;;;;4902916;29;20134;-90
2023/03/13 03:51:53;;;;;;;2.30;1.80;;;12.00;79.40;;;;;;4918832;29;20032;-89
2023/03/13 03:54:26;;;;;;;2.20;1.63;;;12.00;79.40;;;;;;4918825;29;20032;-90
2023/03/13 03:56:51;;;;;;;2.75;1.90;;;12.00;79.40;;;;;;4902834;29;20037;-89
2023/03/13 03:59:17;;;;;;;2.60;1.60;;;12.00;79.40;;;;;;4918350;29;20039;-90
2023/03/13 04:01:46;;;;;;;2.28;1.80;;;12.00;79.40;;;;;;4918056;29;20116;-89
2023/03/13 04:04:15;;;;;;;1.77;1.60;;;12.00;79.40;;;;;;4902515;29;20036;-90
2023/03/13 04:06:44;;;;;;;3.05;1.90;;;12.10;79.40;;;;;;4917899;29;20046;-89
2023/03/13 04:09:10;;;;;;;1.98;1.65;;;12.10;79.40;;;;;;4903060;29;20029;-90
2023/03/13 04:11:37;;;;;;;1.88;1.60;;;12.10;79.40;;;;;;4902074;29;20032;-89
2023/03/13 04:14:04;;;;;;;2.97;2.10;;;12.10;79.40;;;;;;4887651;29;20111;-89
2023/03/13 04:16:30;;;;;;;3.25;1.80;;;12.10;79.40;;;;;;4902848;29;20032;-89
2023/03/13 04:18:56;;;;;;;2.22;1.65;;;12.10;79.40;;;;;;4902279;29;20040;-89
2023/03/13 04:21:24;;;;;;;3.42;2.00;;;12.20;79.50;;;;;;4918015;29;20055;-89
2023/03/13 04:23:55;;;;;;;2.00;1.75;;;12.20;79.50;;;;;;4918062;29;20046;-89
2023/03/13 04:26:22;;;;;;;3.97;1.83;;;12.20;79.50;;;;;;4934687;29;20466;-90
2023/03/13 04:28:50;;;;;;;2.67;1.85;;;12.20;79.50;;;;;;4902548;29;20079;-90
2023/03/13 04:31:22;;;;;;;3.55;2.00;;;12.20;79.50;;;;;;4903264;29;20055;-90
2023/03/13 04:34:17;;;;;;;1.95;1.67;;;12.20;79.50;;;;;;4852100;29;20042;-90
2023/03/13 04:37:01;;;;;;;1.83;1.60;;;12.20;79.40;;;;;;4919327;29;20052;-90
2023/03/13 04:39:37;;;;;;;2.13;1.67;;;12.20;79.40;;;;;;4921251;29;20072;-89
2023/03/13 04:42:27;;;;;;;2.33;1.95;;;12.20;80.10;;;;;;4843470;29;20038;-90
2023/03/13 04:45:11;;;;;;;2.55;1.95;;;12.30;79.50;;;;;;4888731;29;20056;-90
2023/03/13 04:47:49;;;;;;;2.35;1.70;;;12.30;79.50;;;;;;4920329;29;20062;-90
2023/03/13 04:50:35;;;;;;;1.77;1.60;;;12.30;79.50;;;;;;4924510;29;20040;-90
2023/03/13 04:53:21;;;;;;;1.75;1.60;;;12.30;79.40;;;;;;4917287;29;20036;-89
2023/03/13 04:55:55;;;;;;;2.80;1.95;;;12.30;79.50;;;;;;4917398;29;20138;-89
2023/03/13 04:58:39;;;;;;;2.30;1.80;;;12.30;79.50;;;;;;4904464;29;20054;-90
2023/03/13 05:01:23;;;;;;;2.88;1.80;;;12.30;79.50;;;;;;4902541;29;20092;-89
2023/03/13 05:04:15;;;;;;;2.53;1.70;;;12.40;79.50;;;;;;4905571;29;20032;-89
2023/03/13 05:06:55;;;;;;;2.55;1.90;;;12.40;80.20;;;;;;4902455;29;20472;-89
2023/03/13 05:09:56;;;;;;;2.05;1.80;;;12.40;79.50;;;;;;4842314;29;20460;-89
2023/03/13 05:12:30;;;;;;;1.92;1.63;;;12.40;79.50;;;;;;4882678;29;20041;-90
2023/03/13 05:15:10;;;;;;;2.42;1.90;;;12.40;79.50;;;;;;4901964;29;20032;-89
2023/03/13 05:17:45;;;;;;;2.20;1.80;;;12.40;80.10;;;;;;4902897;29;20051;-89
2023/03/13 05:20:20;;;;;;;2.55;1.98;;;12.50;79.60;;;;;;4933459;29;20048;-90
2023/03/13 05:23:00;;;;;;;2.15;1.83;;;12.50;79.60;;;;;;4907083;29;20542;-90
2023/03/13 05:26:01;;;;;;;2.45;1.92;;;12.50;79.60;;;;;;4877530;29;20062;-89
2023/03/13 05:28:30;;;;;;;2.15;1.90;;;12.50;79.50;;;;;;4897694;29;20040;-89
2023/03/13 05:31:18;;;;;;;2.78;1.90;;;12.50;79.60;;;;;;4920799;29;20036;-89
2023/03/13 05:33:49;;;;;;;2.50;2.05;;;12.50;79.50;;;;;;4908885;29;20096;-91
2023/03/13 05:36:34;;;;;;;2.88;1.90;;;12.50;79.50;;;;;;4907794;29;20035;-90
2023/03/13 05:39:31;;;;;;;2.63;1.83;;;12.60;80.20;;;;;;4907832;29;20040;-89
2023/03/13 05:42:25;;;;;;;2.60;1.80;;;12.60;79.50;;;;;;4920703;29;20064;-88
2023/03/13 05:45:20;;;;;;;2.35;2.05;;;12.60;79.50;;;;;;4868439;29;20125;-86
2023/03/13 05:48:11;;;;;;;2.47;2.08;;;12.60;79.50;;;;;;4907255;29;20052;-87
2023/03/13 05:51:01;;;;;;;2.28;1.92;;;12.60;79.50;;;;;;4902901;29;20119;-89
2023/03/13 05:53:52;;;;;;;2.50;1.90;;;12.70;79.60;;;;;;4907600;29;20420;-88
2023/03/13 05:56:31;;;;;;;2.67;2.08;;;12.70;79.60;;;;;;4907993;29;20060;-88
2023/03/13 05:59:12;;;;;;;2.78;2.15;;;12.70;79.60;;;;;;4925257;29;20533;-90
2023/03/13 06:01:54;;;;;;;3.42;1.88;;;12.70;79.60;;;;;;4921242;29;20036;-90
2023/03/13 06:04:27;;;;;;;2.90;2.20;;;12.70;79.50;;;;;;4922467;29;20445;-89
2023/03/13 06:06:53;;;;;;;2.78;1.95;;;12.70;79.50;;;;;;4906818;29;20534;-90
2023/03/13 06:09:19;;;;;;;2.83;2.15;;;12.80;79.60;;;;;;4907389;29;20150;-91
2023/03/13 06:11:45;;;;;;;2.63;2.13;;;12.80;79.50;;;;;;4907092;29;20512;-88
2023/03/13 06:14:12;;;;;;;2.22;1.98;;;12.80;79.50;;;;;;4907019;29;20024;-88
2023/03/13 06:16:43;;;;;;;2.88;2.10;;;12.80;79.50;;;;;;4922380;29;20028;-89
2023/03/13 06:19:23;;;;;;;2.40;2.00;;;12.80;79.40;;;;;;4907158;29;20036;-85
2023/03/13 06:21:50;;;;;;;2.17;1.92;;;12.80;79.40;;;;;;4906895;29;20040;-91
2023/03/13 06:24:21;;;;;;;3.85;2.35;;;12.90;79.50;;;;;;4906979;29;20039;-90
2023/03/13 06:26:50;;;;;;;2.40;2.10;;;12.90;79.50;;;;;;4922051;29;20036;-88
2023/03/13 06:29:16;;;;;;;2.50;1.98;;;12.90;79.60;;;;;;4906907;29;20020;-87
2023/03/13 06:31:42;;;;;;;2.33;2.03;;;12.90;79.60;;;;;;4923510;29;20043;-87
2023/03/13 06:34:12;;;;;;;3.13;2.22;;;12.90;79.60;;;;;;4904126;29;20028;-86
2023/03/13 06:36:38;;;;;;;2.60;1.75;;;13.00;79.60;;;;;;4919739;29;20047;-88
2023/03/13 06:39:07;;;;;;;2.95;2.25;;;13.00;79.60;;;;;;4904322;29;20032;-89
2023/03/13 06:41:33;;;;;;;3.13;2.05;;;13.00;79.60;;;;;;4919948;29;20040;-89
2023/03/13 06:44:01;;;;;;;3.05;2.20;;;13.00;79.60;;;;;;4919672;29;20376;-88
2023/03/13 06:46:27;;;;;;;2.15;1.90;;;13.00;79.60;;;;;;4903857;29;20060;-88
2023/03/13 06:48:53;;;;;;;3.45;2.03;;;13.00;80.20;;;;;;4903206;29;20040;-88
2023/03/13 06:51:20;;;;;;;3.42;2.20;;;13.10;79.60;;;;;;4935505;29;20087;-88
2023/03/13 06:53:47;;;;;;;3.30;2.15;;;13.10;80.20;;;;;;4919682;29;20413;-87
2023/03/13 06:56:13;;;;;;;2.90;2.13;;;13.10;79.60;;;;;;4903900;29;20083;-88
2023/03/13 06:58:39;;;;;;;2.65;2.00;;;13.10;80.20;;;;;;4919137;29;20202;-89
2023/03/13 07:01:08;;;;;;;3.10;2.30;;;13.10;79.50;;;;;;4919698;29;20040;-88
2023/03/13 07:03:34;;;;;;;3.10;2.10;;;13.10;79.50;;;;;;4919806;29;20028;-89
2023/03/13 07:06:00;;;;;;;2.63;2.05;;;13.10;79.50;;;;;;4919760;29;20036;-88
2023/03/13 07:08:27;;;;;;;2.47;2.00;;;13.10;79.50;;;;;;4922090;29;20393;-88
2023/03/13 07:10:56;;;;;;;2.78;2.08;;;13.20;79.60;;;;;;4922122;29;20040;-88
2023/03/13 07:13:22;;;;;;;3.15;2.10;;;13.20;79.60;;;;;;4905002;29;20473;-88
2023/03/13 07:15:48;;;;;;;3.67;2.03;;;13.20;79.60;;;;;;4920658;29;20170;-88
2023/03/13 07:18:14;;;;;;;2.80;1.90;;;13.20;79.60;;;;;;4904090;29;20032;-87
2023/03/13 07:20:40;;;;;;;2.67;1.70;;;13.20;79.50;;;;;;4903912;29;20040;-90
2023/03/13 07:23:06;;;;;;;2.70;1.60;;;13.20;79.50;;;;;;4919380;29;20151;-87
2023/03/13 07:25:32;;;;;;;3.47;1.90;;;13.20;79.50;;;;;;4887777;29;20025;-88
2023/03/13 07:27:59;;;;;;;2.38;1.77;;;13.30;79.50;;;;;;4887360;29;20032;-87
2023/03/13 07:30:26;;;;;;;2.10;1.83;;;13.30;79.50;;;;;;4918491;29;20039;-88
2023/03/13 07:32:52;;;;;;;1.95;1.75;;;13.30;79.50;;;;;;4934462;29;20026;-87
2023/03/13 07:35:18;;;;;;;3.15;1.90;;;13.30;79.50;;;;;;4903143;29;20119;-87
2023/03/13 07:37:44;;;;;;;3.08;2.05;;;13.30;79.40;;;;;;4902501;29;20074;-88
2023/03/13 07:40:10;;;;;;;2.30;1.80;;;13.30;79.40;;;;;;4902657;29;20393;-88
2023/03/13 07:42:40;;;;;;;3.17;2.00;;;13.40;79.50;;;;;;4918550;29;20020;-87
2023/03/13 07:45:06;;;;;;;2.47;1.90;;;13.40;79.50;;;;;;4903064;29;20028;-87
2023/03/13 07:47:35;;;;;;;3.33;1.83;;;13.40;79.50;;;;;;4902484;29;20056;-87
2023/03/13 07:50:01;;;;;;;2.50;1.65;;;13.40;79.50;;;;;;4919113;29;20036;-87
2023/03/13 07:52:27;;;;;;;2.10;1.88;;;13.40;79.50;;;;;;4903782;29;20032;-86
2023/03/13 07:54:53;;;;;;;2.72;1.90;;;13.40;79.50;;;;;;4936535;29;20037;-87
2023/03/13 07:57:19;;;;;;;2.42;1.80;;;13.40;79.50;;;;;;4921338;29;20047;-86
2023/03/13 07:59:45;;;;;;;2.75;2.00;;;13.50;79.50;;;;;;4904881;29;20130;-86
2023/03/13 08:02:12;;;;;;;3.00;1.75;;;13.40;79.50;;;;;;4905558;29;20112;-86
2023/03/13 08:04:39;;;;;;;2.00;1.70;;;13.50;79.50;;;;;;4919581;29;20032;-85
2023/03/13 08:07:09;;;;;;;1.98;1.73;;;13.50;79.40;;;;;;4920924;29;20040;-86
2023/03/13 08:09:34;;;;;;;2.72;1.90;;;13.50;79.40;;;;;;4934913;29;20024;-87
2023/03/13 08:12:00;;;;;;;2.08;1.70;;;13.50;79.30;;;;;;4903049;29;20040;-86
2023/03/13 08:14:26;;;;;;;2.97;1.95;;;13.50;79.30;;;;;;4902644;29;20405;-86
2023/03/13 08:16:52;;;;;;;1.92;1.73;;;13.50;79.30;;;;;;4918169;29;20054;-86
2023/03/13 08:19:18;;;;;;;2.55;1.73;;;13.60;79.40;;;;;;4902428;29;20581;-87
2023/03/13 08:21:44;;;;;;;2.10;1.70;;;13.60;79.30;;;;;;4901996;29;20082;-86
2023/03/13 08:24:11;;;;;;;1.70;1.60;;;13.60;79.30;;;;;;4933581;29;20032;-86
2023/03/13 08:26:40;;;;;;;3.85;1.92;;;13.60;79.30;;;;;;4917712;29;20032;-86
2023/03/13 08:29:09;;;;;;;2.15;1.63;;;13.60;79.30;;;;;;4901880;29;20043;-86
2023/03/13 08:31:41;;;;;;;3.55;1.90;;;13.60;79.30;;;;;;4886479;29;20024;-86
2023/03/13 08:34:07;;;;;;;2.95;1.75;;;13.70;79.40;;;;;;4934536;29;20465;-87
2023/03/13 08:36:37;;;;;;;2.78;2.10;;;13.70;79.40;;;;;;4902188;29;20032;-85
2023/03/13 08:39:12;;;;;;;1.63;1.52;;;13.70;79.40;;;;;;4933353;29;20070;-85
2023/03/13 08:41:41;;;;;;;2.13;1.60;;;13.70;79.40;;;;;;4886390;29;20402;-86
2023/03/13 08:44:10;;;;;;;2.38;1.70;;;13.70;79.40;;;;;;4886048;29;20076;-83
2023/03/13 08:46:39;;;;;;;3.72;1.80;;;13.80;79.50;;;;;;4933205;29;20469;-86
2023/03/13 08:49:06;;;;;;;2.15;1.65;;;13.80;79.50;;;;;;4901675;29;20063;-86
2023/03/13 08:51:33;;;;;;;2.00;1.67;;;13.70;79.40;;;;;;4901847;29;20172;-85
2023/03/13 08:54:00;;;;;;;3.38;1.80;;;13.80;79.50;;;;;;4918061;29;20191;-86
2023/03/13 08:56:29;;;;;;;2.50;1.73;;;13.80;79.40;;;;;;4885843;29;20034;-85
2023/03/13 08:58:58;;;;;;;2.13;1.70;;;13.80;79.40;;;;;;4932826;29;20076;-86
2023/03/13 09:01:27;;;;;;;2.22;1.70;;;13.90;79.40;;;;;;4933048;29;20036;-86
2023/03/13 09:03:54;;;;;;;2.05;1.63;;;13.90;79.40;;;;;;4917769;29;20035;-86
2023/03/13 09:06:20;;;;;;;1.65;1.55;;;13.90;79.40;;;;;;4933473;29;20027;-86
2023/03/13 09:08:46;;;;;;;1.70;1.45;;;13.90;79.40;;;;;;4901559;29;20042;-85
2023/03/13 09:11:15;;;;;;;2.95;1.60;;;14.00;79.40;;;;;;4901256;29;20036;-85
2023/03/13 09:13:43;;;;;;;2.83;1.70;;;13.90;79.40;;;;;;4900940;29;20059;-87
2023/03/13 09:16:14;;;;;;;2.40;1.50;;;14.00;79.50;;;;;;4901598;29;20042;-86
2023/03/13 09:18:40;;;;;;;1.98;1.70;;;14.00;79.50;;;;;;4886055;29;20078;-86
2023/03/13 09:21:09;;;;;;;2.65;1.60;;;14.00;79.40;;;;;;4886474;29;20029;-85
2023/03/13 09:23:35;;;;;;;3.05;1.90;;;14.00;79.50;;;;;;4901251;29;20032;-87
2023/03/13 09:26:01;;;;;;;2.25;2.00;;;14.00;79.40;;;;;;4901093;29;20084;-85
2023/03/13 09:28:27;;;;;;;1.73;1.50;;;14.10;79.50;;;;;;4918245;29;20061;-85
2023/03/13 09:30:54;;;;;;;2.67;1.70;;;14.10;79.50;;;;;;4901239;29;20024;-86
2023/03/13 09:33:24;;;;;;;2.80;1.80;;;14.10;79.50;;;;;;4885563;29;20068;-85
2023/03/13 09:35:50;;;;;;;2.40;1.40;;;14.20;79.50;;;;;;4901464;29;20504;-86
2023/03/13 09:38:17;;;;;;;1.67;1.48;;;14.20;79.50;;;;;;4916875;29;20032;-86
2023/03/13 09:40:48;;;;;;;2.05;1.67;;;14.20;79.50;;;;;;4901018;29;20028;-86
2023/03/13 09:43:44;;;;;;;2.90;1.73;;;14.20;79.50;;;;;;4900996;29;20120;-86
2023/03/13 09:46:27;;;;;;;1.60;1.40;;;14.20;79.50;;;;;;4917332;29;20468;-84
2023/03/13 09:49:04;;;;;;;1.40;1.27;;;14.30;79.50;;;;;;4900809;29;20518;-85
2023/03/13 09:51:41;;;;;;;1.48;1.38;;;14.30;79.50;;;;;;4932671;29;20106;-85
2023/03/13 09:54:33;;;;;;;1.70;1.50;;;14.30;79.50;;;;;;4885088;29;20051;-86
2023/03/13 09:57:18;;;;;;;2.85;1.63;;;14.40;79.50;;;;;;4901650;29;20074;-85
2023/03/13 09:59:53;;;;;;;1.65;1.50;;;14.40;79.50;;;;;;4900550;29;20131;-85
2023/03/13 10:02:28;;;;;;;1.40;1.27;;;14.40;79.40;;;;;;4901015;29;20056;-85
2023/03/13 10:05:04;;;;;;;1.73;1.63;;;14.40;79.50;;;;;;4901320;29;20029;-86
2023/03/13 10:07:30;;;;;;;1.80;1.30;;;14.50;79.50;;;;;;4916919;29;20446;-86
2023/03/13 10:09:58;;;;;;;2.33;1.55;;;14.50;79.40;;;;;;4903482;29;20161;-86
2023/03/13 10:12:28;;;;;;;2.53;1.67;;;14.50;79.40;;;;;;4904148;29;20031;-85
2023/03/13 10:14:57;;;;;;;1.83;1.30;;;14.50;79.40;;;;;;4904348;29;20032;-85
2023/03/13 10:17:35;;;;;;;2.25;1.45;;;14.60;79.50;;;;;;4919792;29;20040;-85
2023/03/13 10:20:22;;;;;;;1.88;1.48;;;14.60;79.50;;;;;;4920076;29;20033;-86
2023/03/13 10:22:54;;;;;;;1.50;1.40;;;14.60;79.40;;;;;;4903884;29;20028;-84
2023/03/13 10:25:31;;;;;;;1.63;1.52;;;14.60;79.40;;;;;;4904038;29;20481;-83
2023/03/13 10:27:58;;;;;;;1.50;1.40;;;14.70;79.40;;;;;;4919754;29;20028;-86
2023/03/13 10:30:30;;;;;;;1.65;1.40;;;14.70;79.40;;;;;;4919927;29;20493;-84
2023/03/13 10:33:16;;;;;;;2.35;1.38;;;14.70;79.40;;;;;;4888296;29;20039;-88
2023/03/13 10:35:43;;;;;;;2.10;1.50;;;14.80;79.40;;;;;;4919810;29;20035;-88
2023/03/13 10:38:13;;;;;;;1.40;1.30;;;14.80;79.40;;;;;;4919587;29;20036;-87
2023/03/13 10:40:41;;;;;;;2.38;1.40;;;14.80;79.40;;;;;;4919898;29;20039;-88
2023/03/13 10:43:18;;;;;;;1.63;1.52;;;14.90;79.40;;;;;;4920187;29;20028;-88
2023/03/13 10:45:46;;;;;;;2.30;1.40;;;14.90;79.40;;;;;;4935911;29;20496;-87
2023/03/13 10:48:13;;;;;;;1.50;1.33;;;14.90;79.30;;;;;;4919479;29;20066;-86
2023/03/13 10:50:45;;;;;;;1.73;1.50;;;15.00;79.40;;;;;;4904507;29;20028;-88
2023/03/13 10:53:29;;;;;;;1.75;1.50;;;15.00;79.40;;;;;;4920520;29;20036;-88
2023/03/13 10:56:02;;;;;;;1.90;1.58;;;15.00;79.40;;;;;;4921173;29;20032;-86
2023/03/13 10:58:33;;;;;;;2.40;1.67;;;15.10;79.40;;;;;;4919827;29;20036;-88
2023/03/13 11:01:19;;;;;;;1.55;1.23;;;15.10;79.30;;;;;;4888220;29;20036;-85
2023/03/13 11:03:47;;;;;;;1.75;1.40;;;15.10;79.30;;;;;;4904210;29;20087;-86
2023/03/13 11:06:25;;;;;;;1.50;1.40;;;15.20;79.20;;;;;;4892665;29;20024;-87
2023/03/13 11:09:04;;;;;;;1.70;1.45;;;15.20;79.30;;;;;;4927122;29;20066;-87
2023/03/13 11:11:31;;;;;;;2.20;1.50;;;15.20;79.20;;;;;;4940881;29;20047;-86
2023/03/13 11:14:12;;;;;;;1.95;1.50;;;15.30;79.30;;;;;;4937528;29;20131;-86
2023/03/13 11:16:49;;;;;;;1.85;1.67;;;15.30;79.30;;;;;;4904098;29;20028;-85
2023/03/13 11:19:41;;;;;;;2.28;1.70;;;15.30;79.20;;;;;;4888942;29;20496;-84
2023/03/13 11:22:13;;;;;;;1.52;1.42;;;15.40;79.30;;;;;;4919154;29;20039;-87
2023/03/13 11:24:54;;;;;;;1.75;1.40;;;15.40;79.20;;;;;;4920563;29;20125;-86
2023/03/13 11:27:29;;;;;;;2.25;1.70;;;15.40;79.20;;;;;;4919207;29;20102;-85
2023/03/13 11:30:15;;;;;;;2.20;1.40;;;15.50;79.20;;;;;;4934891;29;20032;-86
2023/03/13 11:33:02;;;;;;;2.78;1.60;;;15.50;79.20;;;;;;4934727;29;20028;-85
2023/03/13 11:35:47;;;;;;;1.20;1.10;;;15.50;79.00;;;;;;4902997;29;20127;-85
2023/03/13 11:38:38;;;;;;;1.90;1.50;;;15.60;79.10;;;;;;4934664;29;20108;-85
2023/03/13 11:41:26;;;;;;;1.35;1.25;;;15.60;79.10;;;;;;4897603;29;20044;-86
2023/03/13 11:44:19;;;;;;;1.73;1.40;;;15.70;79.20;;;;;;4903642;29;20365;-88
2023/03/13 11:47:27;;;;;;;1.40;1.30;;;15.70;79.10;;;;;;4919043;29;20476;-85
2023/03/13 11:50:11;;;;;;;1.95;1.25;;;15.80;79.00;;;;;;4885753;29;20044;-85
2023/03/13 11:52:43;;;;;;;1.33;1.23;;;15.80;79.00;;;;;;4887892;29;20050;-86
2023/03/13 11:55:18;;;;;;;1.48;1.38;;;15.90;79.00;;;;;;4934364;29;20028;-85
2023/03/13 11:58:10;;;;;;;2.72;1.27;;;15.90;78.90;;;;;;4934895;29;20449;-86
2023/03/13 12:01:02;;;;;;;2.05;1.38;;;16.00;78.90;;;;;;4919943;29;20032;-87
2023/03/13 12:03:49;;;;;;;1.42;1.30;;;16.00;79.00;;;;;;4899863;29;20067;-85
2023/03/13 12:06:45;;;;;;;1.75;1.30;;;16.10;78.90;;;;;;4934123;29;20032;-85
2023/03/13 12:09:14;;;;;;;;;;;16.10;78.90;;;;;;4920136;29;20465;-86
2023/03/13 12:12:16;;;;;;;1.05;1.05;;;16.10;78.70;;;;;;4918973;29;19947;-86
2023/03/13 12:14:55;;;;;;;1.40;1.30;;;16.20;78.70;;;;;;4918615;29;20032;-86
2023/03/13 12:17:37;;;;;;;1.40;1.30;;;16.20;78.70;;;;;;4917965;29;20036;-86
2023/03/13 12:20:15;;;;;;;1.30;1.20;;;16.30;78.70;;;;;;4901788;29;20491;-85
2023/03/13 12:23:00;;;;;;;1.30;1.20;;;16.30;78.70;;;;;;4919203;29;20043;-85
2023/03/13 12:25:57;;;;;;;1.45;1.35;;;16.40;78.70;;;;;;4934372;29;20148;-86
2023/03/13 12:28:38;;;;;;;1.63;1.42;;;16.40;78.60;;;;;;4893840;29;20051;-86
2023/03/13 12:31:23;;;;;;;1.67;1.33;;;16.50;78.70;;;;;;4901660;29;20028;-86
2023/03/13 12:34:16;;;;;;;1.30;1.20;;;16.50;78.60;;;;;;4917526;29;20044;-86
2023/03/13 12:37:07;;;;;;;1.85;1.38;;;16.60;78.70;;;;;;4933496;29;20024;-86
2023/03/13 12:39:46;;;;;;;2.25;1.10;;;16.60;78.70;;;;;;4901969;29;20044;-86
2023/03/13 12:42:46;;;;;;;1.40;1.25;;;16.70;78.60;;;;;;4917627;29;20036;-85
2023/03/13 12:45:18;;;;;;;1.75;1.35;;;16.70;78.60;;;;;;4917649;29;20036;-85
2023/03/13 12:48:04;;;;;;;1.42;1.20;;;16.80;79.10;;;;;;4918299;29;20111;-87
2023/03/13 12:51:08;;;;;;;1.95;1.30;;;16.80;78.50;;;;;;4882614;29;20047;-86
2023/03/13 12:53:54;;;;;;;1.20;1.10;;;17.00;78.50;;;;;;4917128;29;20036;-86
2023/03/13 12:56:48;;;;;;;1.52;1.30;;;16.90;78.40;;;;;;4918115;29;20036;-86
2023/03/13 12:59:20;;;;;;;1.77;1.00;;;17.00;78.30;;;;;;4916821;29;20036;-89
2023/03/13 13:01:50;;;;;;;1.25;1.10;;;17.10;78.40;;;;;;4885852;29;20032;-87
2023/03/13 13:04:28;;;;;;;1.20;1.10;;;17.10;78.30;;;;;;4917129;29;20124;-85
2023/03/13 13:07:04;;;;;;;1.77;1.20;;;17.20;78.40;;;;;;4902213;29;20063;-88
2023/03/13 13:09:34;;;;;;;1.55;1.20;;;17.20;78.30;;;;;;4901802;29;20484;-88
2023/03/13 13:12:21;;;;;;;1.40;1.20;;;17.30;78.30;;;;;;4917849;29;20042;-89
2023/03/13 13:14:47;;;;;;;1.65;1.23;;;17.30;78.20;;;;;;4885982;29;20119;-88
2023/03/13 13:17:32;;;;;;;1.33;1.08;;;17.30;78.80;;;;;;4917751;29;20441;-87